Terminal Aerodrome Forecast
Issued by NWS Charleston, WV

Current Version | Previous Version | Graphics & Text | Print | Product List | Glossary On
Versions: 1 2 3 4 5 6 7 8 9 10 11 12 13 14 15 16 17 18 19 20 21 22 23
000
FTUS41 KRLX 261426 AAA
TAFPKB
TAF AMD
KPKB 261426Z 2614/2712 16004KT P6SM BKN050
      TEMPO 2614/2616 26008G18KT 6SM -RA BR BKN040
     FM261900 19006KT P6SM VCSH BKN050
     FM270200 20007KT P6SM TSRA BKN040CB
     FM270300 21007KT P6SM SHRA VCTS BKN040CB
     FM270400 20006KT 6SM SHRA BR VCTS BKN025CB
     FM270800 20005KT 6SM SHRA BR VCTS OVC035CB
     FM270900 20005KT P6SM SHRA VCTS BKN035CB=

USA.gov is the U.S. government's official web portal to all federal, state and local government web resources and services.